sensor_id;sensor_type;location;lat;lon;timestamp;pressure;altitude;pressure_sealevel;temperature;humidity
73525;BME280;61776;56.194;44.160;2022-10-19T00:01:19;99827.34;;;24.39;35.81
73525;BME280;61776;56.194;44.160;2022-10-19T00:03:48;99823.66;;;24.40;35.87
73525;BME280;61776;56.194;44.160;2022-10-19T00:06:26;99824.69;;;24.39;35.90
73525;BME280;61776;56.194;44.160;2022-10-19T00:08:57;99817.53;;;24.40;35.60
73525;BME280;61776;56.194;44.160;2022-10-19T00:11:24;99816.50;;;24.41;35.84
73525;BME280;61776;56.194;44.160;2022-10-19T00:13:51;99817.75;;;24.38;35.77
73525;BME280;61776;56.194;44.160;2022-10-19T00:16:18;99821.00;;;24.40;35.43
73525;BME280;61776;56.194;44.160;2022-10-19T00:18:44;99831.84;;;24.39;35.75
73525;BME280;61776;56.194;44.160;2022-10-19T00:21:13;99829.44;;;24.37;35.25
73525;BME280;61776;56.194;44.160;2022-10-19T00:23:39;99825.16;;;24.36;34.72
73525;BME280;61776;56.194;44.160;2022-10-19T00:26:06;99829.44;;;24.37;34.69
73525;BME280;61776;56.194;44.160;2022-10-19T00:28:32;99826.78;;;24.37;34.66
73525;BME280;61776;56.194;44.160;2022-10-19T00:31:07;99828.59;;;24.37;34.81
73525;BME280;61776;56.194;44.160;2022-10-19T00:33:33;99831.25;;;24.37;34.90
73525;BME280;61776;56.194;44.160;2022-10-19T00:35:59;99825.16;;;24.36;34.99
73525;BME280;61776;56.194;44.160;2022-10-19T00:38:25;99833.91;;;24.37;35.16
73525;BME280;61776;56.194;44.160;2022-10-19T00:40:51;99833.91;;;24.37;35.26
73525;BME280;61776;56.194;44.160;2022-10-19T00:43:26;99837.41;;;24.37;35.48
73525;BME280;61776;56.194;44.160;2022-10-19T00:45:52;99833.91;;;24.37;35.36
73525;BME280;61776;56.194;44.160;2022-10-19T00:48:25;99827.81;;;24.36;34.99
73525;BME280;61776;56.194;44.160;2022-10-19T00:50:54;99829.09;;;24.34;34.67
73525;BME280;61776;56.194;44.160;2022-10-19T00:53:22;99832.78;;;24.33;34.55
73525;BME280;61776;56.194;44.160;2022-10-19T00:55:50;99832.78;;;24.33;34.68
73525;BME280;61776;56.194;44.160;2022-10-19T00:58:16;99831.97;;;24.32;34.22
73525;BME280;61776;56.194;44.160;2022-10-19T01:00:42;99829.56;;;24.31;34.38
73525;BME280;61776;56.194;44.160;2022-10-19T01:03:09;99834.84;;;24.31;34.60
73525;BME280;61776;56.194;44.160;2022-10-19T01:05:37;99837.50;;;24.31;34.37
73525;BME280;61776;56.194;44.160;2022-10-19T01:08:04;99835.66;;;24.31;34.12
73525;BME280;61776;56.194;44.160;2022-10-19T01:10:51;99827.25;;;24.34;34.67
73525;BME280;61776;56.194;44.160;2022-10-19T01:14:20;99826.44;;;24.34;34.48
73525;BME280;61776;56.194;44.160;2022-10-19T01:31:08;99821.13;;;24.34;35.01
73525;BME280;61776;56.194;44.160;2022-10-19T01:36:23;99826.44;;;24.34;34.69
73525;BME280;61776;56.194;44.160;2022-10-19T01:38:57;99824.59;;;24.34;34.55
73525;BME280;61776;56.194;44.160;2022-10-19T01:44:14;99825.59;;;24.33;34.48
73525;BME280;61776;56.194;44.160;2022-10-19T01:46:49;99829.88;;;24.34;34.94
73525;BME280;61776;56.194;44.160;2022-10-19T01:49:28;99826.22;;;24.35;34.91
73525;BME280;61776;56.194;44.160;2022-10-19T01:52:01;99830.69;;;24.35;34.73
73525;BME280;61776;56.194;44.160;2022-10-19T01:54:33;99839.69;;;24.34;35.39
73525;BME280;61776;56.194;44.160;2022-10-19T01:57:02;99833.56;;;24.33;35.38
73525;BME280;61776;56.194;44.160;2022-10-19T01:59:31;99840.50;;;24.34;35.42
73525;BME280;61776;56.194;44.160;2022-10-19T02:01:58;99842.13;;;24.35;35.55
73525;BME280;61776;56.194;44.160;2022-10-19T02:04:24;99842.94;;;24.36;35.31
73525;BME280;61776;56.194;44.160;2022-10-19T02:06:52;99839.47;;;24.35;35.37
73525;BME280;61776;56.194;44.160;2022-10-19T02:09:19;99844.19;;;24.33;34.65
73525;BME280;61776;56.194;44.160;2022-10-19T02:11:46;99833.00;;;24.31;34.62
73525;BME280;61776;56.194;44.160;2022-10-19T02:14:15;99830.13;;;24.33;34.78
73525;BME280;61776;56.194;44.160;2022-10-19T02:16:49;99825.59;;;24.33;34.90
73525;BME280;61776;56.194;44.160;2022-10-19T02:19:19;99823.78;;;24.34;35.61
73525;BME280;61776;56.194;44.160;2022-10-19T02:21:46;99829.88;;;24.34;35.60
73525;BME280;61776;56.194;44.160;2022-10-19T02:24:12;99834.97;;;24.36;35.46
73525;BME280;61776;56.194;44.160;2022-10-19T02:26:38;99844.53;;;24.37;35.35
73525;BME280;61776;56.194;44.160;2022-10-19T02:29:05;99840.03;;;24.37;35.74
73525;BME280;61776;56.194;44.160;2022-10-19T02:31:32;99838.19;;;24.38;35.64
73525;BME280;61776;56.194;44.160;2022-10-19T02:33:58;99838.41;;;24.36;35.47
73525;BME280;61776;56.194;44.160;2022-10-19T02:36:24;99843.50;;;24.38;35.16
73525;BME280;61776;56.194;44.160;2022-10-19T02:38:50;99840.84;;;24.38;35.24
73525;BME280;61776;56.194;44.160;2022-10-19T02:43:49;99855.75;;;24.39;35.59
73525;BME280;61776;56.194;44.160;2022-10-19T02:46:26;99853.09;;;24.39;35.73
73525;BME280;61776;56.194;44.160;2022-10-19T02:48:54;99854.13;;;24.38;35.72
73525;BME280;61776;56.194;44.160;2022-10-19T02:51:36;99855.75;;;24.39;35.25
73525;BME280;61776;56.194;44.160;2022-10-19T02:54:03;99855.97;;;24.37;34.86
73525;BME280;61776;56.194;44.160;2022-10-19T02:56:29;99853.53;;;24.36;34.89
73525;BME280;61776;56.194;44.160;2022-10-19T02:58:55;99852.75;;;24.35;35.00
73525;BME280;61776;56.194;44.160;2022-10-19T03:01:22;99849.25;;;24.35;35.05
73525;BME280;61776;56.194;44.160;2022-10-19T03:03:48;99850.09;;;24.35;34.94
73525;BME280;61776;56.194;44.160;2022-10-19T03:06:14;99849.50;;;24.33;34.79
73525;BME280;61776;56.194;44.160;2022-10-19T03:08:40;99845.81;;;24.34;34.57
73525;BME280;61776;56.194;44.160;2022-10-19T03:11:06;99839.47;;;24.35;35.19
73525;BME280;61776;56.194;44.160;2022-10-19T03:13:32;99835.19;;;24.34;34.91
73525;BME280;61776;56.194;44.160;2022-10-19T03:16:05;99847.91;;;24.32;34.42
73525;BME280;61776;56.194;44.160;2022-10-19T03:18:31;99845.25;;;24.32;34.38
73525;BME280;61776;56.194;44.160;2022-10-19T03:21:08;99847.09;;;24.32;34.41
73525;BME280;61776;56.194;44.160;2022-10-19T03:23:35;99838.31;;;24.31;34.75
73525;BME280;61776;56.194;44.160;2022-10-19T03:26:01;99839.13;;;24.32;34.63
73525;BME280;61776;56.194;44.160;2022-10-19T03:28:27;99847.09;;;24.32;34.59
73525;BME280;61776;56.194;44.160;2022-10-19T03:30:53;99839.94;;;24.32;34.84
73525;BME280;61776;56.194;44.160;2022-10-19T03:33:19;99837.28;;;24.32;34.88
73525;BME280;61776;56.194;44.160;2022-10-19T03:35:45;99842.13;;;24.35;35.09
73525;BME280;61776;56.194;44.160;2022-10-19T03:38:11;99849.25;;;24.35;35.48
73525;BME280;61776;56.194;44.160;2022-10-19T03:40:37;99849.03;;;24.36;35.43
73525;BME280;61776;56.194;44.160;2022-10-19T03:43:03;99838.41;;;24.36;35.47
73525;BME280;61776;56.194;44.160;2022-10-19T03:45:29;99839.00;;;24.38;35.54
73525;BME280;61776;56.194;44.160;2022-10-19T03:47:55;99833.69;;;24.38;35.50
73525;BME280;61776;56.194;44.160;2022-10-19T03:50:20;99829.44;;;24.37;35.62
73525;BME280;61776;56.194;44.160;2022-10-19T03:52:46;99817.19;;;24.36;35.79
73525;BME280;61776;56.194;44.160;2022-10-19T03:55:14;99816.97;;;24.38;35.83
73525;BME280;61776;56.194;44.160;2022-10-19T03:57:41;99817.75;;;24.38;36.45
73525;BME280;61776;56.194;44.160;2022-10-19T04:00:08;99815.94;;;24.39;36.65
73525;BME280;61776;56.194;44.160;2022-10-19T04:02:40;99806.94;;;24.40;37.19
73525;BME280;61776;56.194;44.160;2022-10-19T04:05:06;99818.09;;;24.42;37.48
73525;BME280;61776;56.194;44.160;2022-10-19T04:07:32;99807.84;;;24.46;37.31
73525;BME280;61776;56.194;44.160;2022-10-19T04:09:58;99807.16;;;24.50;37.01
73525;BME280;61776;56.194;44.160;2022-10-19T04:12:24;99803.00;;;24.54;37.65
73525;BME280;61776;56.194;44.160;2022-10-19T04:14:49;99813.47;;;24.61;38.02
73525;BME280;61776;56.194;44.160;2022-10-19T04:17:15;99816.22;;;24.66;38.76
73525;BME280;61776;56.194;44.160;2022-10-19T04:19:41;99821.88;;;24.70;38.70
73525;BME280;61776;56.194;44.160;2022-10-19T04:22:07;99821.41;;;24.73;38.67
73525;BME280;61776;56.194;44.160;2022-10-19T04:24:33;99821.97;;;24.75;38.73
73525;BME280;61776;56.194;44.160;2022-10-19T04:26:58;99820.13;;;24.75;38.84
73525;BME280;61776;56.194;44.160;2022-10-19T04:29:25;99825.19;;;24.77;38.60
73525;BME280;61776;56.194;44.160;2022-10-19T04:31:52;99821.75;;;24.76;38.49
73525;BME280;61776;56.194;44.160;2022-10-19T04:34:18;99820.91;;;24.76;38.97
73525;BME280;61776;56.194;44.160;2022-10-19T04:36:44;99827.06;;;24.76;38.93
73525;BME280;61776;56.194;44.160;2022-10-19T04:39:10;99828.66;;;24.77;38.95
73525;BME280;61776;56.194;44.160;2022-10-19T04:41:36;99826.78;;;24.78;38.63
73525;BME280;61776;56.194;44.160;2022-10-19T04:44:04;99834.41;;;24.74;37.39
73525;BME280;61776;56.194;44.160;2022-10-19T04:46:31;99829.59;;;24.71;37.36
73525;BME280;61776;56.194;44.160;2022-10-19T04:48:58;99822.44;;;24.72;37.63
73525;BME280;61776;56.194;44.160;2022-10-19T04:51:24;99827.75;;;24.72;37.75
73525;BME280;61776;56.194;44.160;2022-10-19T04:53:51;99830.41;;;24.72;37.67
73525;BME280;61776;56.194;44.160;2022-10-19T04:56:22;99821.88;;;24.70;37.34
73525;BME280;61776;56.194;44.160;2022-10-19T04:58:53;99819.00;;;24.71;37.76
73525;BME280;61776;56.194;44.160;2022-10-19T05:01:20;99819.78;;;24.72;37.80
73525;BME280;61776;56.194;44.160;2022-10-19T05:03:47;99809.41;;;24.70;37.68
73525;BME280;61776;56.194;44.160;2022-10-19T05:06:14;99805.94;;;24.70;37.70
73525;BME280;61776;56.194;44.160;2022-10-19T05:08:40;99806.75;;;24.70;37.46
73525;BME280;61776;56.194;44.160;2022-10-19T05:11:08;99803.06;;;24.71;37.66
73525;BME280;61776;56.194;44.160;2022-10-19T05:13:35;99811.03;;;24.71;37.92
73525;BME280;61776;56.194;44.160;2022-10-19T05:16:03;99814.72;;;24.70;37.34
73525;BME280;61776;56.194;44.160;2022-10-19T05:18:29;99811.25;;;24.70;36.86
73525;BME280;61776;56.194;44.160;2022-10-19T05:23:31;99821.53;;;24.66;37.34
73525;BME280;61776;56.194;44.160;2022-10-19T05:25:59;99819.13;;;24.65;37.17
73525;BME280;61776;56.194;44.160;2022-10-19T05:28:25;99816.47;;;24.65;37.46
73525;BME280;61776;56.194;44.160;2022-10-19T05:30:51;99821.44;;;24.61;37.31
73525;BME280;61776;56.194;44.160;2022-10-19T05:33:17;99823.28;;;24.60;36.65
73525;BME280;61776;56.194;44.160;2022-10-19T05:35:43;99815.78;;;24.57;36.83
73525;BME280;61776;56.194;44.160;2022-10-19T05:38:08;99814.19;;;24.56;36.92
73525;BME280;61776;56.194;44.160;2022-10-19T05:40:34;99813.38;;;24.56;37.15
73525;BME280;61776;56.194;44.160;2022-10-19T05:43:00;99818.44;;;24.57;37.19
73525;BME280;61776;56.194;44.160;2022-10-19T05:45:26;99816.84;;;24.56;37.08
73525;BME280;61776;56.194;44.160;2022-10-19T05:47:51;99815.00;;;24.57;36.88
73525;BME280;61776;56.194;44.160;2022-10-19T05:50:17;99816.03;;;24.56;36.98
73525;BME280;61776;56.194;44.160;2022-10-19T05:53:03;99818.69;;;24.56;37.38
73525;BME280;61776;56.194;44.160;2022-10-19T17:13:37;99817.47;;;23.99;35.07
73525;BME280;61776;56.194;44.160;2022-10-19T17:16:06;99820.94;;;24.00;35.22
73525;BME280;61776;56.194;44.160;2022-10-19T17:18:32;99823.34;;;24.01;35.22
73525;BME280;61776;56.194;44.160;2022-10-19T17:21:03;99826.59;;;24.03;35.36
73525;BME280;61776;56.194;44.160;2022-10-19T17:23:29;99829.34;;;24.09;34.94
73525;BME280;61776;56.194;44.160;2022-10-19T17:25:55;99824.59;;;24.11;35.04
73525;BME280;61776;56.194;44.160;2022-10-19T17:28:21;99830.50;;;24.13;34.75
73525;BME280;61776;56.194;44.160;2022-10-19T17:30:47;99827.38;;;24.16;34.88
73525;BME280;61776;56.194;44.160;2022-10-19T17:33:14;99826.34;;;24.17;35.20
73525;BME280;61776;56.194;44.160;2022-10-19T17:35:40;99827.94;;;24.18;35.46
73525;BME280;61776;56.194;44.160;2022-10-19T17:38:06;99829.81;;;24.17;35.15
73525;BME280;61776;56.194;44.160;2022-10-19T17:40:32;99830.03;;;24.16;35.08
73525;BME280;61776;56.194;44.160;2022-10-19T17:42:57;99833.97;;;24.13;34.97
73525;BME280;61776;56.194;44.160;2022-10-19T17:45:23;99833.72;;;24.15;35.13
73525;BME280;61776;56.194;44.160;2022-10-19T17:47:49;99827.38;;;24.16;34.96
73525;BME280;61776;56.194;44.160;2022-10-19T17:50:15;99831.09;;;24.15;35.07
73525;BME280;61776;56.194;44.160;2022-10-19T17:52:41;99828.66;;;24.13;34.92
73525;BME280;61776;56.194;44.160;2022-10-19T17:55:07;99831.53;;;24.12;35.10
73525;BME280;61776;56.194;44.160;2022-10-19T17:57:34;99832.34;;;24.12;35.16
73525;BME280;61776;56.194;44.160;2022-10-19T18:00:00;99841.34;;;24.11;34.81
73525;BME280;61776;56.194;44.160;2022-10-19T18:02:26;99843.78;;;24.13;34.72
73525;BME280;61776;56.194;44.160;2022-10-19T18:04:53;99835.00;;;24.12;34.88
73525;BME280;61776;56.194;44.160;2022-10-19T18:07:18;99842.94;;;24.12;34.91
73525;BME280;61776;56.194;44.160;2022-10-19T18:09:46;99845.16;;;24.15;35.19
73525;BME280;61776;56.194;44.160;2022-10-19T18:12:12;99838.47;;;24.13;35.04
73525;BME280;61776;56.194;44.160;2022-10-19T18:14:38;99838.47;;;24.13;34.78
73525;BME280;61776;56.194;44.160;2022-10-19T18:17:05;99841.13;;;24.13;34.46
73525;BME280;61776;56.194;44.160;2022-10-19T18:19:30;99847.22;;;24.13;34.81
73525;BME280;61776;56.194;44.160;2022-10-19T18:21:56;99851.25;;;24.16;34.59
73525;BME280;61776;56.194;44.160;2022-10-19T18:24:23;99848.03;;;24.14;34.96
73525;BME280;61776;56.194;44.160;2022-10-19T18:26:49;99855.75;;;24.15;35.04
73525;BME280;61776;56.194;44.160;2022-10-19T18:29:22;99854.69;;;24.16;34.86
73525;BME280;61776;56.194;44.160;2022-10-19T18:31:49;99854.69;;;24.16;34.60
73525;BME280;61776;56.194;44.160;2022-10-19T18:34:20;99860.84;;;24.17;34.79
73525;BME280;61776;56.194;44.160;2022-10-19T18:36:46;99853.91;;;24.16;35.05
73525;BME280;61776;56.194;44.160;2022-10-19T18:39:13;99860.84;;;24.17;34.60
73525;BME280;61776;56.194;44.160;2022-10-19T18:41:39;99864.28;;;24.17;34.77
73525;BME280;61776;56.194;44.160;2022-10-19T18:44:06;99859.19;;;24.16;34.53
73525;BME280;61776;56.194;44.160;2022-10-19T18:46:34;99866.13;;;24.17;34.43
73525;BME280;61776;56.194;44.160;2022-10-19T18:49:02;99863.25;;;24.18;34.64
73525;BME280;61776;56.194;44.160;2022-10-19T18:51:28;99866.13;;;24.17;34.64
73525;BME280;61776;56.194;44.160;2022-10-19T18:53:56;99865.31;;;24.16;34.53
73525;BME280;61776;56.194;44.160;2022-10-19T18:56:26;99867.72;;;24.18;34.71
73525;BME280;61776;56.194;44.160;2022-10-19T18:58:51;99865.06;;;24.18;34.62
73525;BME280;61776;56.194;44.160;2022-10-19T19:01:20;99870.38;;;24.18;34.70
73525;BME280;61776;56.194;44.160;2022-10-19T19:03:49;99870.38;;;24.18;34.61
73525;BME280;61776;56.194;44.160;2022-10-19T19:06:27;99875.47;;;24.19;34.82
73525;BME280;61776;56.194;44.160;2022-10-19T19:08:58;99885.50;;;24.17;34.50
73525;BME280;61776;56.194;44.160;2022-10-19T19:11:29;99885.50;;;24.17;34.50
73525;BME280;61776;56.194;44.160;2022-10-19T19:13:58;99888.94;;;24.18;34.78
73525;BME280;61776;56.194;44.160;2022-10-19T19:16:25;99894.25;;;24.18;34.62
73525;BME280;61776;56.194;44.160;2022-10-19T19:18:53;99888.94;;;24.18;34.89
73525;BME280;61776;56.194;44.160;2022-10-19T19:21:27;99892.66;;;24.17;34.49
73525;BME280;61776;56.194;44.160;2022-10-19T19:23:55;99892.66;;;24.17;34.44
73525;BME280;61776;56.194;44.160;2022-10-19T19:26:23;99892.66;;;24.17;34.10
73525;BME280;61776;56.194;44.160;2022-10-19T19:28:51;99895.53;;;24.15;34.53
73525;BME280;61776;56.194;44.160;2022-10-19T19:31:17;99891.03;;;24.16;34.21
73525;BME280;61776;56.194;44.160;2022-10-19T19:33:44;99894.47;;;24.16;34.48
73525;BME280;61776;56.194;44.160;2022-10-19T19:36:12;99893.69;;;24.16;34.61
73525;BME280;61776;56.194;44.160;2022-10-19T19:38:38;99891.81;;;24.16;34.59
73525;BME280;61776;56.194;44.160;2022-10-19T19:41:05;99894.47;;;24.16;34.83
73525;BME280;61776;56.194;44.160;2022-10-19T19:43:33;99898.75;;;24.17;34.60
73525;BME280;61776;56.194;44.160;2022-10-19T19:46:02;99906.50;;;24.19;34.45
73525;BME280;61776;56.194;44.160;2022-10-19T19:48:29;99901.19;;;24.19;34.42
73525;BME280;61776;56.194;44.160;2022-10-19T19:50:55;99895.88;;;24.19;34.82
73525;BME280;61776;56.194;44.160;2022-10-19T19:53:21;99898.53;;;24.19;34.78
73525;BME280;61776;56.194;44.160;2022-10-19T19:55:48;99904.88;;;24.18;34.60
73525;BME280;61776;56.194;44.160;2022-10-19T19:58:15;99897.75;;;24.18;34.36
73525;BME280;61776;56.194;44.160;2022-10-19T20:00:42;99909.94;;;24.19;34.64
73525;BME280;61776;56.194;44.160;2022-10-19T20:03:08;99900.97;;;24.20;34.59
73525;BME280;61776;56.194;44.160;2022-10-19T20:05:35;99898.31;;;24.20;34.71
73525;BME280;61776;56.194;44.160;2022-10-19T20:08:01;99902.00;;;24.19;34.64
73525;BME280;61776;56.194;44.160;2022-10-19T20:10:27;99899.34;;;24.19;35.18
73525;BME280;61776;56.194;44.160;2022-10-19T20:12:53;99898.31;;;24.20;34.73
73525;BME280;61776;56.194;44.160;2022-10-19T20:15:19;99906.00;;;24.22;34.99
73525;BME280;61776;56.194;44.160;2022-10-19T20:17:45;99917.44;;;24.22;34.92
73525;BME280;61776;56.194;44.160;2022-10-19T20:20:13;99917.44;;;24.22;34.62
73525;BME280;61776;56.194;44.160;2022-10-19T20:22:44;99909.72;;;24.21;35.21
73525;BME280;61776;56.194;44.160;2022-10-19T20:25:10;99906.84;;;24.22;34.95
73525;BME280;61776;56.194;44.160;2022-10-19T20:27:37;99910.53;;;24.21;34.70
73525;BME280;61776;56.194;44.160;2022-10-19T20:30:04;99913.97;;;24.22;34.99
73525;BME280;61776;56.194;44.160;2022-10-19T20:32:30;99918.81;;;24.25;34.73
73525;BME280;61776;56.194;44.160;2022-10-19T20:34:56;99918.25;;;24.23;35.19
73525;BME280;61776;56.194;44.160;2022-10-19T20:37:22;99924.34;;;24.23;35.23
73525;BME280;61776;56.194;44.160;2022-10-19T20:39:48;99911.66;;;24.26;35.25
73525;BME280;61776;56.194;44.160;2022-10-19T20:42:15;99910.06;;;24.25;35.16
73525;BME280;61776;56.194;44.160;2022-10-19T20:44:43;99916.97;;;24.26;35.20
73525;BME280;61776;56.194;44.160;2022-10-19T20:47:09;99915.16;;;24.26;35.11
73525;BME280;61776;56.194;44.160;2022-10-19T20:49:35;99911.44;;;24.27;34.93
73525;BME280;61776;56.194;44.160;2022-10-19T20:52:01;99913.06;;;24.28;35.13
73525;BME280;61776;56.194;44.160;2022-10-19T20:54:27;99911.22;;;24.29;34.92
73525;BME280;61776;56.194;44.160;2022-10-19T20:56:53;99910.41;;;24.28;34.98
73525;BME280;61776;56.194;44.160;2022-10-19T20:59:21;99921.81;;;24.29;35.15
73525;BME280;61776;56.194;44.160;2022-10-19T21:01:53;99916.28;;;24.30;35.14
73525;BME280;61776;56.194;44.160;2022-10-19T21:04:19;99913.88;;;24.29;35.00
73525;BME280;61776;56.194;44.160;2022-10-19T21:06:47;99914.66;;;24.29;34.81
73525;BME280;61776;56.194;44.160;2022-10-19T21:09:16;99921.81;;;24.29;35.07
73525;BME280;61776;56.194;44.160;2022-10-19T21:11:43;99921.81;;;24.29;35.14
73525;BME280;61776;56.194;44.160;2022-10-19T21:14:15;99913.06;;;24.28;35.13
73525;BME280;61776;56.194;44.160;2022-10-19T21:16:41;99914.09;;;24.27;34.80
73525;BME280;61776;56.194;44.160;2022-10-19T21:19:10;99923.91;;;24.27;35.04
73525;BME280;61776;56.194;44.160;2022-10-19T21:21:40;99918.81;;;24.25;35.01
73525;BME280;61776;56.194;44.160;2022-10-19T21:24:09;99923.91;;;24.27;34.98
73525;BME280;61776;56.194;44.160;2022-10-19T21:26:36;99916.97;;;24.26;35.08
73525;BME280;61776;56.194;44.160;2022-10-19T21:29:03;99917.81;;;24.26;35.04
73525;BME280;61776;56.194;44.160;2022-10-19T21:31:29;99922.28;;;24.26;34.87
73525;BME280;61776;56.194;44.160;2022-10-19T21:33:56;99922.28;;;24.26;34.93
73525;BME280;61776;56.194;44.160;2022-10-19T21:36:23;99923.34;;;24.25;35.10
73525;BME280;61776;56.194;44.160;2022-10-19T21:38:52;99923.56;;;24.23;35.24
73525;BME280;61776;56.194;44.160;2022-10-19T21:41:19;99924.59;;;24.22;35.18
73525;BME280;61776;56.194;44.160;2022-10-19T21:43:45;99928.06;;;24.22;35.20
73525;BME280;61776;56.194;44.160;2022-10-19T21:46:13;99924.59;;;24.22;35.52
73525;BME280;61776;56.194;44.160;2022-10-19T21:48:40;99922.97;;;24.21;35.14
73525;BME280;61776;56.194;44.160;2022-10-19T21:54:04;99927.22;;;24.22;35.37
73525;BME280;61776;56.194;44.160;2022-10-19T21:56:31;99928.06;;;24.22;35.42
73525;BME280;61776;56.194;44.160;2022-10-19T21:59:17;99935.19;;;24.22;35.08
73525;BME280;61776;56.194;44.160;2022-10-19T22:03:06;99930.94;;;24.21;35.20
73525;BME280;61776;56.194;44.160;2022-10-19T22:10:19;99938.31;;;24.19;35.13
